sensor_id;sensor_type;location;lat;lon;timestamp;P1;durP1;ratioP1;P2;durP2;ratioP2
21513;SDS011;10918;48.102;11.636;2023-04-08T00:01:10;9.77;;;7.40;;
21513;SDS011;10918;48.102;11.636;2023-04-08T00:03:36;8.27;;;6.85;;
21513;SDS011;10918;48.102;11.636;2023-04-08T00:06:02;9.93;;;7.45;;
21513;SDS011;10918;48.102;11.636;2023-04-08T00:08:28;9.73;;;6.78;;
21513;SDS011;10918;48.102;11.636;2023-04-08T00:10:54;9.82;;;6.85;;
21513;SDS011;10918;48.102;11.636;2023-04-08T00:13:21;7.70;;;6.57;;
21513;SDS011;10918;48.102;11.636;2023-04-08T00:15:47;8.73;;;7.13;;
21513;SDS011;10918;48.102;11.636;2023-04-08T00:18:13;7.85;;;6.53;;
21513;SDS011;10918;48.102;11.636;2023-04-08T00:20:41;9.02;;;7.00;;
21513;SDS011;10918;48.102;11.636;2023-04-08T00:23:07;7.47;;;6.05;;
21513;SDS011;10918;48.102;11.636;2023-04-08T00:25:33;7.45;;;6.32;;
21513;SDS011;10918;48.102;11.636;2023-04-08T00:27:59;6.95;;;6.20;;
21513;SDS011;10918;48.102;11.636;2023-04-08T00:30:25;7.82;;;6.20;;
21513;SDS011;10918;48.102;11.636;2023-04-08T00:32:52;7.32;;;6.35;;
21513;SDS011;10918;48.102;11.636;2023-04-08T00:35:18;9.68;;;6.57;;
21513;SDS011;10918;48.102;11.636;2023-04-08T00:37:44;8.27;;;6.03;;
21513;SDS011;10918;48.102;11.636;2023-04-08T00:40:10;8.43;;;6.22;;
21513;SDS011;10918;48.102;11.636;2023-04-08T00:42:37;9.07;;;6.60;;
21513;SDS011;10918;48.102;11.636;2023-04-08T00:45:03;8.60;;;6.18;;
21513;SDS011;10918;48.102;11.636;2023-04-08T00:47:29;10.20;;;5.97;;
21513;SDS011;10918;48.102;11.636;2023-04-08T00:49:56;9.43;;;6.38;;
21513;SDS011;10918;48.102;11.636;2023-04-08T00:52:22;7.63;;;5.90;;
21513;SDS011;10918;48.102;11.636;2023-04-08T00:54:48;7.15;;;5.53;;
21513;SDS011;10918;48.102;11.636;2023-04-08T00:57:14;7.15;;;5.65;;
21513;SDS011;10918;48.102;11.636;2023-04-08T00:59:40;7.80;;;6.13;;
21513;SDS011;10918;48.102;11.636;2023-04-08T01:09:50;7.20;;;5.57;;
21513;SDS011;10918;48.102;11.636;2023-04-08T01:12:21;8.13;;;6.03;;
21513;SDS011;10918;48.102;11.636;2023-04-08T01:14:51;6.68;;;5.80;;
21513;SDS011;10918;48.102;11.636;2023-04-08T01:17:20;7.72;;;5.90;;
21513;SDS011;10918;48.102;11.636;2023-04-08T01:19:46;6.20;;;5.10;;
21513;SDS011;10918;48.102;11.636;2023-04-08T01:24:42;8.93;;;5.82;;
21513;SDS011;10918;48.102;11.636;2023-04-08T01:27:09;8.38;;;5.47;;
21513;SDS011;10918;48.102;11.636;2023-04-08T01:29:35;8.25;;;5.45;;
21513;SDS011;10918;48.102;11.636;2023-04-08T01:32:02;8.23;;;5.95;;
21513;SDS011;10918;48.102;11.636;2023-04-08T01:34:28;8.00;;;5.55;;
21513;SDS011;10918;48.102;11.636;2023-04-08T01:36:55;6.93;;;5.43;;
21513;SDS011;10918;48.102;11.636;2023-04-08T01:39:22;8.30;;;5.53;;
21513;SDS011;10918;48.102;11.636;2023-04-08T01:41:48;6.50;;;5.07;;
21513;SDS011;10918;48.102;11.636;2023-04-08T01:44:15;8.15;;;5.00;;
21513;SDS011;10918;48.102;11.636;2023-04-08T01:46:42;8.68;;;5.90;;
21513;SDS011;10918;48.102;11.636;2023-04-08T01:49:08;7.18;;;5.25;;
21513;SDS011;10918;48.102;11.636;2023-04-08T01:51:35;6.97;;;5.32;;
21513;SDS011;10918;48.102;11.636;2023-04-08T01:54:02;7.65;;;5.88;;
21513;SDS011;10918;48.102;11.636;2023-04-08T01:56:28;6.45;;;5.35;;
21513;SDS011;10918;48.102;11.636;2023-04-08T01:58:55;7.40;;;5.30;;
21513;SDS011;10918;48.102;11.636;2023-04-08T02:01:23;7.55;;;5.95;;
21513;SDS011;10918;48.102;11.636;2023-04-08T02:03:50;9.43;;;6.32;;
21513;SDS011;10918;48.102;11.636;2023-04-08T02:06:20;6.60;;;5.90;;
21513;SDS011;10918;48.102;11.636;2023-04-08T02:08:46;8.18;;;6.28;;
21513;SDS011;10918;48.102;11.636;2023-04-08T02:11:12;7.63;;;5.90;;
21513;SDS011;10918;48.102;11.636;2023-04-08T02:13:38;7.50;;;5.82;;
21513;SDS011;10918;48.102;11.636;2023-04-08T02:16:09;6.72;;;5.75;;
21513;SDS011;10918;48.102;11.636;2023-04-08T02:18:39;7.05;;;5.60;;
21513;SDS011;10918;48.102;11.636;2023-04-08T02:23:33;7.43;;;6.03;;
21513;SDS011;10918;48.102;11.636;2023-04-08T02:26:00;6.82;;;5.90;;
21513;SDS011;10918;48.102;11.636;2023-04-08T02:28:27;8.02;;;5.90;;
21513;SDS011;10918;48.102;11.636;2023-04-08T02:30:53;8.10;;;6.10;;
21513;SDS011;10918;48.102;11.636;2023-04-08T02:33:21;8.05;;;6.18;;
21513;SDS011;10918;48.102;11.636;2023-04-08T02:35:48;8.00;;;6.15;;
21513;SDS011;10918;48.102;11.636;2023-04-08T02:38:14;7.30;;;6.18;;
21513;SDS011;10918;48.102;11.636;2023-04-08T02:40:40;7.53;;;6.10;;
21513;SDS011;10918;48.102;11.636;2023-04-08T02:43:06;8.23;;;6.10;;
21513;SDS011;10918;48.102;11.636;2023-04-08T02:45:50;8.38;;;6.10;;
21513;SDS011;10918;48.102;11.636;2023-04-08T02:48:17;7.28;;;5.93;;
21513;SDS011;10918;48.102;11.636;2023-04-08T02:50:42;7.47;;;6.25;;
21513;SDS011;10918;48.102;11.636;2023-04-08T02:53:09;8.88;;;6.47;;
21513;SDS011;10918;48.102;11.636;2023-04-08T02:55:35;7.78;;;6.03;;
21513;SDS011;10918;48.102;11.636;2023-04-08T02:58:02;8.65;;;6.20;;
21513;SDS011;10918;48.102;11.636;2023-04-08T03:00:28;10.52;;;6.63;;
21513;SDS011;10918;48.102;11.636;2023-04-08T03:02:54;7.30;;;6.38;;
21513;SDS011;10918;48.102;11.636;2023-04-08T03:05:20;8.88;;;6.63;;
21513;SDS011;10918;48.102;11.636;2023-04-08T03:07:46;8.43;;;6.63;;
21513;SDS011;10918;48.102;11.636;2023-04-08T03:10:12;8.00;;;6.65;;
21513;SDS011;10918;48.102;11.636;2023-04-08T03:12:38;8.50;;;6.43;;
21513;SDS011;10918;48.102;11.636;2023-04-08T03:15:04;7.85;;;6.03;;
21513;SDS011;10918;48.102;11.636;2023-04-08T03:17:31;8.25;;;6.28;;
21513;SDS011;10918;48.102;11.636;2023-04-08T03:19:58;7.90;;;5.90;;
21513;SDS011;10918;48.102;11.636;2023-04-08T03:22:24;10.68;;;6.70;;
21513;SDS011;10918;48.102;11.636;2023-04-08T03:24:50;9.60;;;6.43;;
21513;SDS011;10918;48.102;11.636;2023-04-08T03:27:16;9.93;;;6.78;;
21513;SDS011;10918;48.102;11.636;2023-04-08T03:29:42;9.98;;;6.90;;
21513;SDS011;10918;48.102;11.636;2023-04-08T03:32:10;8.32;;;7.43;;
21513;SDS011;10918;48.102;11.636;2023-04-08T03:34:36;10.73;;;7.63;;
21513;SDS011;10918;48.102;11.636;2023-04-08T03:37:02;10.63;;;6.88;;
21513;SDS011;10918;48.102;11.636;2023-04-08T03:39:28;10.10;;;7.63;;
21513;SDS011;10918;48.102;11.636;2023-04-08T03:41:55;8.75;;;7.28;;
21513;SDS011;10918;48.102;11.636;2023-04-08T03:44:23;11.40;;;7.80;;
21513;SDS011;10918;48.102;11.636;2023-04-08T03:46:49;8.50;;;7.50;;
21513;SDS011;10918;48.102;11.636;2023-04-08T03:49:15;9.55;;;7.40;;
21513;SDS011;10918;48.102;11.636;2023-04-08T03:51:41;9.52;;;7.40;;
21513;SDS011;10918;48.102;11.636;2023-04-08T03:54:08;8.20;;;7.28;;
21513;SDS011;10918;48.102;11.636;2023-04-08T03:56:33;9.88;;;7.35;;
21513;SDS011;10918;48.102;11.636;2023-04-08T03:58:59;11.90;;;7.65;;
21513;SDS011;10918;48.102;11.636;2023-04-08T04:01:25;9.63;;;7.78;;
21513;SDS011;10918;48.102;11.636;2023-04-08T04:03:51;9.45;;;7.85;;
21513;SDS011;10918;48.102;11.636;2023-04-08T04:06:17;9.98;;;7.82;;
21513;SDS011;10918;48.102;11.636;2023-04-08T04:08:43;11.13;;;8.32;;
21513;SDS011;10918;48.102;11.636;2023-04-08T04:11:10;10.93;;;8.32;;
21513;SDS011;10918;48.102;11.636;2023-04-08T04:13:36;9.95;;;7.68;;
21513;SDS011;10918;48.102;11.636;2023-04-08T04:16:02;14.82;;;8.40;;
21513;SDS011;10918;48.102;11.636;2023-04-08T04:18:28;9.48;;;7.57;;
21513;SDS011;10918;48.102;11.636;2023-04-08T04:20:55;10.10;;;8.20;;
21513;SDS011;10918;48.102;11.636;2023-04-08T04:23:21;11.00;;;8.00;;
21513;SDS011;10918;48.102;11.636;2023-04-08T04:25:48;9.93;;;7.50;;
21513;SDS011;10918;48.102;11.636;2023-04-08T04:28:15;12.65;;;9.00;;
21513;SDS011;10918;48.102;11.636;2023-04-08T04:30:41;10.60;;;7.10;;
21513;SDS011;10918;48.102;11.636;2023-04-08T04:33:07;10.25;;;7.97;;
21513;SDS011;10918;48.102;11.636;2023-04-08T04:35:33;8.40;;;7.25;;
21513;SDS011;10918;48.102;11.636;2023-04-08T04:37:59;10.43;;;7.68;;
21513;SDS011;10918;48.102;11.636;2023-04-08T04:40:25;10.57;;;7.93;;
21513;SDS011;10918;48.102;11.636;2023-04-08T04:42:51;10.75;;;8.23;;
21513;SDS011;10918;48.102;11.636;2023-04-08T04:45:17;10.10;;;8.02;;
21513;SDS011;10918;48.102;11.636;2023-04-08T04:47:43;9.38;;;8.15;;
21513;SDS011;10918;48.102;11.636;2023-04-08T04:50:09;9.85;;;8.27;;
21513;SDS011;10918;48.102;11.636;2023-04-08T04:52:35;10.90;;;8.35;;
21513;SDS011;10918;48.102;11.636;2023-04-08T04:55:01;10.10;;;8.07;;
21513;SDS011;10918;48.102;11.636;2023-04-08T04:57:27;11.15;;;8.60;;
21513;SDS011;10918;48.102;11.636;2023-04-08T04:59:53;9.77;;;8.27;;
21513;SDS011;10918;48.102;11.636;2023-04-08T05:02:19;8.93;;;8.02;;
21513;SDS011;10918;48.102;11.636;2023-04-08T05:04:45;11.82;;;8.13;;
21513;SDS011;10918;48.102;11.636;2023-04-08T05:07:11;11.27;;;9.23;;
21513;SDS011;10918;48.102;11.636;2023-04-08T05:09:37;12.32;;;9.35;;
21513;SDS011;10918;48.102;11.636;2023-04-08T05:12:03;9.05;;;7.97;;
21513;SDS011;10918;48.102;11.636;2023-04-08T05:14:29;10.73;;;8.48;;
21513;SDS011;10918;48.102;11.636;2023-04-08T05:16:56;13.63;;;8.70;;
21513;SDS011;10918;48.102;11.636;2023-04-08T05:19:22;13.48;;;9.80;;
21513;SDS011;10918;48.102;11.636;2023-04-08T05:21:48;11.30;;;9.02;;
21513;SDS011;10918;48.102;11.636;2023-04-08T05:24:14;12.43;;;9.35;;
21513;SDS011;10918;48.102;11.636;2023-04-08T05:26:40;11.43;;;9.95;;
21513;SDS011;10918;48.102;11.636;2023-04-08T05:29:06;11.18;;;9.10;;
21513;SDS011;10918;48.102;11.636;2023-04-08T05:31:32;11.95;;;9.32;;
21513;SDS011;10918;48.102;11.636;2023-04-08T05:33:58;11.15;;;9.25;;
21513;SDS011;10918;48.102;11.636;2023-04-08T05:36:24;12.77;;;10.38;;
21513;SDS011;10918;48.102;11.636;2023-04-08T05:38:51;12.55;;;9.68;;
21513;SDS011;10918;48.102;11.636;2023-04-08T05:41:17;13.82;;;10.43;;
21513;SDS011;10918;48.102;11.636;2023-04-08T05:43:43;13.52;;;12.07;;
21513;SDS011;10918;48.102;11.636;2023-04-08T05:46:09;14.25;;;10.85;;
21513;SDS011;10918;48.102;11.636;2023-04-08T05:48:35;12.40;;;10.40;;
21513;SDS011;10918;48.102;11.636;2023-04-08T05:51:01;12.90;;;9.77;;
21513;SDS011;10918;48.102;11.636;2023-04-08T05:53:27;13.52;;;10.60;;
21513;SDS011;10918;48.102;11.636;2023-04-08T05:55:53;15.02;;;10.25;;
21513;SDS011;10918;48.102;11.636;2023-04-08T05:58:19;11.43;;;9.82;;
21513;SDS011;10918;48.102;11.636;2023-04-08T06:00:45;11.90;;;9.65;;
21513;SDS011;10918;48.102;11.636;2023-04-08T06:03:11;14.43;;;10.85;;
21513;SDS011;10918;48.102;11.636;2023-04-08T06:05:37;12.63;;;10.32;;
21513;SDS011;10918;48.102;11.636;2023-04-08T06:08:03;12.63;;;10.18;;
21513;SDS011;10918;48.102;11.636;2023-04-08T06:10:30;12.40;;;9.73;;
21513;SDS011;10918;48.102;11.636;2023-04-08T06:12:55;12.30;;;10.65;;
21513;SDS011;10918;48.102;11.636;2023-04-08T06:15:21;13.98;;;11.68;;
21513;SDS011;10918;48.102;11.636;2023-04-08T06:17:47;12.63;;;10.90;;
21513;SDS011;10918;48.102;11.636;2023-04-08T06:20:13;12.23;;;9.73;;
21513;SDS011;10918;48.102;11.636;2023-04-08T06:22:39;12.73;;;9.75;;
21513;SDS011;10918;48.102;11.636;2023-04-08T06:25:05;14.00;;;10.07;;
21513;SDS011;10918;48.102;11.636;2023-04-08T06:27:32;10.85;;;9.57;;
21513;SDS011;10918;48.102;11.636;2023-04-08T06:29:58;12.13;;;10.07;;
21513;SDS011;10918;48.102;11.636;2023-04-08T06:32:24;12.75;;;9.57;;
21513;SDS011;10918;48.102;11.636;2023-04-08T06:34:50;11.95;;;9.75;;
21513;SDS011;10918;48.102;11.636;2023-04-08T06:37:16;11.75;;;10.07;;
21513;SDS011;10918;48.102;11.636;2023-04-08T06:39:42;13.32;;;9.38;;
21513;SDS011;10918;48.102;11.636;2023-04-08T06:42:08;13.18;;;9.82;;
21513;SDS011;10918;48.102;11.636;2023-04-08T06:44:34;10.18;;;8.98;;
21513;SDS011;10918;48.102;11.636;2023-04-08T06:47:00;12.07;;;10.63;;
21513;SDS011;10918;48.102;11.636;2023-04-08T06:49:26;13.13;;;10.82;;
21513;SDS011;10918;48.102;11.636;2023-04-08T06:51:52;12.95;;;10.20;;
21513;SDS011;10918;48.102;11.636;2023-04-08T06:54:18;12.77;;;10.30;;
21513;SDS011;10918;48.102;11.636;2023-04-08T06:56:44;11.95;;;10.32;;
21513;SDS011;10918;48.102;11.636;2023-04-08T06:59:11;12.65;;;10.40;;
21513;SDS011;10918;48.102;11.636;2023-04-08T07:01:36;14.55;;;11.25;;
21513;SDS011;10918;48.102;11.636;2023-04-08T07:04:02;14.57;;;11.38;;
21513;SDS011;10918;48.102;11.636;2023-04-08T07:06:28;13.38;;;11.70;;
21513;SDS011;10918;48.102;11.636;2023-04-08T07:08:55;13.80;;;11.68;;
21513;SDS011;10918;48.102;11.636;2023-04-08T07:11:21;12.27;;;10.68;;
21513;SDS011;10918;48.102;11.636;2023-04-08T07:13:47;16.52;;;11.30;;
21513;SDS011;10918;48.102;11.636;2023-04-08T07:16:13;13.80;;;10.75;;
21513;SDS011;10918;48.102;11.636;2023-04-08T07:18:39;17.20;;;11.68;;
21513;SDS011;10918;48.102;11.636;2023-04-08T07:21:06;14.13;;;12.10;;
21513;SDS011;10918;48.102;11.636;2023-04-08T07:23:32;12.95;;;11.50;;
21513;SDS011;10918;48.102;11.636;2023-04-08T07:26:02;13.32;;;11.50;;
21513;SDS011;10918;48.102;11.636;2023-04-08T07:28:29;12.63;;;11.20;;
21513;SDS011;10918;48.102;11.636;2023-04-08T07:30:55;16.42;;;11.63;;
21513;SDS011;10918;48.102;11.636;2023-04-08T07:33:21;12.02;;;10.50;;
21513;SDS011;10918;48.102;11.636;2023-04-08T07:35:47;13.13;;;11.73;;
21513;SDS011;10918;48.102;11.636;2023-04-08T07:38:13;15.38;;;12.27;;
21513;SDS011;10918;48.102;11.636;2023-04-08T07:40:40;14.38;;;11.98;;
21513;SDS011;10918;48.102;11.636;2023-04-08T07:43:06;14.93;;;12.32;;
21513;SDS011;10918;48.102;11.636;2023-04-08T07:45:33;14.93;;;12.85;;
21513;SDS011;10918;48.102;11.636;2023-04-08T07:47:59;15.48;;;12.38;;
21513;SDS011;10918;48.102;11.636;2023-04-08T07:50:25;12.20;;;10.98;;
21513;SDS011;10918;48.102;11.636;2023-04-08T07:52:51;13.55;;;10.48;;
21513;SDS011;10918;48.102;11.636;2023-04-08T07:55:17;12.88;;;11.15;;
21513;SDS011;10918;48.102;11.636;2023-04-08T07:57:43;11.75;;;10.35;;
21513;SDS011;10918;48.102;11.636;2023-04-08T08:00:10;11.82;;;10.63;;
21513;SDS011;10918;48.102;11.636;2023-04-08T08:02:36;13.35;;;10.63;;
21513;SDS011;10918;48.102;11.636;2023-04-08T08:05:02;12.57;;;10.00;;
21513;SDS011;10918;48.102;11.636;2023-04-08T08:07:28;12.50;;;9.70;;
21513;SDS011;10918;48.102;11.636;2023-04-08T08:09:54;11.30;;;9.55;;
21513;SDS011;10918;48.102;11.636;2023-04-08T08:12:20;12.25;;;9.88;;
21513;SDS011;10918;48.102;11.636;2023-04-08T08:14:46;11.07;;;9.45;;
21513;SDS011;10918;48.102;11.636;2023-04-08T08:17:12;11.93;;;9.23;;
21513;SDS011;10918;48.102;11.636;2023-04-08T08:19:38;11.45;;;9.60;;
21513;SDS011;10918;48.102;11.636;2023-04-08T08:22:05;11.88;;;9.60;;
21513;SDS011;10918;48.102;11.636;2023-04-08T08:24:31;11.65;;;9.52;;
21513;SDS011;10918;48.102;11.636;2023-04-08T08:26:57;11.13;;;9.93;;
21513;SDS011;10918;48.102;11.636;2023-04-08T08:29:23;12.32;;;9.73;;
21513;SDS011;10918;48.102;11.636;2023-04-08T08:31:49;12.10;;;9.95;;
21513;SDS011;10918;48.102;11.636;2023-04-08T08:34:15;12.60;;;9.57;;
21513;SDS011;10918;48.102;11.636;2023-04-08T08:36:41;13.38;;;10.65;;
21513;SDS011;10918;48.102;11.636;2023-04-08T08:39:07;11.57;;;10.10;;
21513;SDS011;10918;48.102;11.636;2023-04-08T08:41:33;14.68;;;10.57;;
21513;SDS011;10918;48.102;11.636;2023-04-08T08:44:01;11.90;;;10.20;;
21513;SDS011;10918;48.102;11.636;2023-04-08T08:46:27;12.93;;;9.68;;
21513;SDS011;10918;48.102;11.636;2023-04-08T08:48:53;13.25;;;10.43;;
21513;SDS011;10918;48.102;11.636;2023-04-08T08:51:20;12.63;;;10.38;;
21513;SDS011;10918;48.102;11.636;2023-04-08T08:53:46;12.15;;;10.57;;
21513;SDS011;10918;48.102;11.636;2023-04-08T08:56:12;13.68;;;10.02;;
21513;SDS011;10918;48.102;11.636;2023-04-08T08:58:38;13.43;;;10.73;;
21513;SDS011;10918;48.102;11.636;2023-04-08T09:03:57;11.88;;;10.57;;
21513;SDS011;10918;48.102;11.636;2023-04-08T09:06:31;12.50;;;10.45;;
21513;SDS011;10918;48.102;11.636;2023-04-08T09:08:57;13.18;;;10.52;;
21513;SDS011;10918;48.102;11.636;2023-04-08T09:11:23;13.10;;;10.80;;
21513;SDS011;10918;48.102;11.636;2023-04-08T09:13:49;13.57;;;10.15;;
21513;SDS011;10918;48.102;11.636;2023-04-08T09:16:16;14.10;;;10.75;;
21513;SDS011;10918;48.102;11.636;2023-04-08T09:18:43;12.75;;;10.82;;
21513;SDS011;10918;48.102;11.636;2023-04-08T09:21:10;16.10;;;11.88;;
21513;SDS011;10918;48.102;11.636;2023-04-08T09:26:09;13.05;;;10.90;;
21513;SDS011;10918;48.102;11.636;2023-04-08T09:28:36;15.25;;;10.63;;
21513;SDS011;10918;48.102;11.636;2023-04-08T09:33:51;11.10;;;9.85;;
21513;SDS011;10918;48.102;11.636;2023-04-08T09:36:18;13.10;;;10.43;;
21513;SDS011;10918;48.102;11.636;2023-04-08T09:38:44;14.10;;;10.13;;
21513;SDS011;10918;48.102;11.636;2023-04-08T09:41:14;13.30;;;9.55;;
21513;SDS011;10918;48.102;11.636;2023-04-08T09:43:41;10.50;;;9.05;;
21513;SDS011;10918;48.102;11.636;2023-04-08T09:46:08;13.27;;;9.15;;
21513;SDS011;10918;48.102;11.636;2023-04-08T09:48:38;11.15;;;9.07;;
21513;SDS011;10918;48.102;11.636;2023-04-08T09:51:05;12.05;;;9.43;;
21513;SDS011;10918;48.102;11.636;2023-04-08T09:53:37;10.52;;;9.43;;
21513;SDS011;10918;48.102;11.636;2023-04-08T09:56:06;11.80;;;9.70;;
21513;SDS011;10918;48.102;11.636;2023-04-08T09:58:33;11.93;;;9.93;;
21513;SDS011;10918;48.102;11.636;2023-04-08T10:01:04;10.05;;;8.52;;
21513;SDS011;10918;48.102;11.636;2023-04-08T10:03:44;12.45;;;9.38;;
21513;SDS011;10918;48.102;11.636;2023-04-08T10:06:11;12.43;;;9.07;;
21513;SDS011;10918;48.102;11.636;2023-04-08T10:08:37;13.20;;;10.63;;
21513;SDS011;10918;48.102;11.636;2023-04-08T10:11:03;12.90;;;10.45;;
21513;SDS011;10918;48.102;11.636;2023-04-08T10:13:29;11.07;;;9.85;;
21513;SDS011;10918;48.102;11.636;2023-04-08T10:16:29;11.65;;;9.65;;
21513;SDS011;10918;48.102;11.636;2023-04-08T10:18:51;12.77;;;10.27;;
21513;SDS011;10918;48.102;11.636;2023-04-08T10:21:39;12.68;;;10.10;;
21513;SDS011;10918;48.102;11.636;2023-04-08T10:24:13;13.38;;;9.88;;
21513;SDS011;10918;48.102;11.636;2023-04-08T10:26:40;11.13;;;9.98;;
21513;SDS011;10918;48.102;11.636;2023-04-08T10:31:51;11.68;;;9.82;;
21513;SDS011;10918;48.102;11.636;2023-04-08T10:34:18;12.82;;;10.80;;
21513;SDS011;10918;48.102;11.636;2023-04-08T10:36:45;13.35;;;11.60;;
21513;SDS011;10918;48.102;11.636;2023-04-08T10:39:11;12.75;;;10.77;;
21513;SDS011;10918;48.102;11.636;2023-04-08T10:41:45;11.68;;;10.48;;
21513;SDS011;10918;48.102;11.636;2023-04-08T10:44:18;13.18;;;10.52;;
21513;SDS011;10918;48.102;11.636;2023-04-08T10:46:44;11.52;;;10.30;;
21513;SDS011;10918;48.102;11.636;2023-04-08T10:49:11;12.77;;;10.43;;
21513;SDS011;10918;48.102;11.636;2023-04-08T10:51:37;14.13;;;11.73;;
21513;SDS011;10918;48.102;11.636;2023-04-08T10:54:04;12.90;;;10.88;;
21513;SDS011;10918;48.102;11.636;2023-04-08T10:56:31;12.95;;;11.32;;
21513;SDS011;10918;48.102;11.636;2023-04-08T10:58:57;13.73;;;11.00;;
21513;SDS011;10918;48.102;11.636;2023-04-08T11:01:23;16.08;;;11.00;;
21513;SDS011;10918;48.102;11.636;2023-04-08T11:03:50;14.73;;;10.45;;
21513;SDS011;10918;48.102;11.636;2023-04-08T11:06:16;14.95;;;11.63;;
21513;SDS011;10918;48.102;11.636;2023-04-08T11:08:43;13.45;;;12.02;;
21513;SDS011;10918;48.102;11.636;2023-04-08T11:11:09;13.73;;;11.70;;
21513;SDS011;10918;48.102;11.636;2023-04-08T11:13:39;12.82;;;11.35;;
21513;SDS011;10918;48.102;11.636;2023-04-08T11:16:08;13.50;;;11.48;;
21513;SDS011;10918;48.102;11.636;2023-04-08T11:18:35;13.00;;;10.90;;
21513;SDS011;10918;48.102;11.636;2023-04-08T11:21:02;13.77;;;12.35;;
21513;SDS011;10918;48.102;11.636;2023-04-08T11:23:28;14.68;;;11.70;;
21513;SDS011;10918;48.102;11.636;2023-04-08T11:25:55;13.73;;;12.25;;
21513;SDS011;10918;48.102;11.636;2023-04-08T11:28:21;14.25;;;12.10;;
21513;SDS011;10918;48.102;11.636;2023-04-08T11:30:47;16.08;;;13.38;;
21513;SDS011;10918;48.102;11.636;2023-04-08T11:33:13;15.95;;;12.77;;
21513;SDS011;10918;48.102;11.636;2023-04-08T11:35:40;16.02;;;12.70;;
21513;SDS011;10918;48.102;11.636;2023-04-08T11:38:07;14.02;;;11.98;;
21513;SDS011;10918;48.102;11.636;2023-04-08T11:40:33;13.38;;;11.98;;
21513;SDS011;10918;48.102;11.636;2023-04-08T11:42:59;13.93;;;12.10;;
21513;SDS011;10918;48.102;11.636;2023-04-08T11:45:36;15.50;;;12.45;;
21513;SDS011;10918;48.102;11.636;2023-04-08T11:48:09;15.50;;;11.90;;
21513;SDS011;10918;48.102;11.636;2023-04-08T11:50:35;14.02;;;12.40;;
21513;SDS011;10918;48.102;11.636;2023-04-08T11:53:01;13.50;;;11.77;;
21513;SDS011;10918;48.102;11.636;2023-04-08T11:55:28;16.58;;;11.93;;
21513;SDS011;10918;48.102;11.636;2023-04-08T11:57:55;14.35;;;12.43;;
21513;SDS011;10918;48.102;11.636;2023-04-08T12:00:22;14.88;;;12.88;;
21513;SDS011;10918;48.102;11.636;2023-04-08T12:02:48;14.07;;;12.20;;
21513;SDS011;10918;48.102;11.636;2023-04-08T12:05:15;15.57;;;12.57;;
21513;SDS011;10918;48.102;11.636;2023-04-08T12:07:41;14.70;;;13.15;;
21513;SDS011;10918;48.102;11.636;2023-04-08T12:10:08;15.20;;;12.77;;
21513;SDS011;10918;48.102;11.636;2023-04-08T12:12:34;14.55;;;12.18;;
21513;SDS011;10918;48.102;11.636;2023-04-08T12:15:00;14.55;;;12.10;;
21513;SDS011;10918;48.102;11.636;2023-04-08T12:17:26;14.52;;;11.60;;
21513;SDS011;10918;48.102;11.636;2023-04-08T12:19:52;12.38;;;10.45;;
21513;SDS011;10918;48.102;11.636;2023-04-08T12:22:18;12.60;;;11.30;;
21513;SDS011;10918;48.102;11.636;2023-04-08T12:24:45;11.38;;;10.27;;
21513;SDS011;10918;48.102;11.636;2023-04-08T12:27:11;11.95;;;10.60;;
21513;SDS011;10918;48.102;11.636;2023-04-08T12:29:37;12.70;;;10.45;;
21513;SDS011;10918;48.102;11.636;2023-04-08T12:32:03;11.77;;;10.40;;
21513;SDS011;10918;48.102;11.636;2023-04-08T12:34:30;12.45;;;10.75;;
21513;SDS011;10918;48.102;11.636;2023-04-08T12:36:57;12.23;;;10.52;;
21513;SDS011;10918;48.102;11.636;2023-04-08T12:39:23;13.90;;;11.45;;
21513;SDS011;10918;48.102;11.636;2023-04-08T12:41:49;13.80;;;10.52;;
21513;SDS011;10918;48.102;11.636;2023-04-08T12:44:15;12.30;;;9.75;;
21513;SDS011;10918;48.102;11.636;2023-04-08T12:46:41;10.45;;;9.18;;
21513;SDS011;10918;48.102;11.636;2023-04-08T12:49:07;12.02;;;9.98;;
21513;SDS011;10918;48.102;11.636;2023-04-08T12:51:34;10.15;;;9.15;;
21513;SDS011;10918;48.102;11.636;2023-04-08T12:54:00;10.73;;;9.63;;
21513;SDS011;10918;48.102;11.636;2023-04-08T12:56:28;12.55;;;9.23;;
21513;SDS011;10918;48.102;11.636;2023-04-08T12:58:54;11.23;;;8.98;;
21513;SDS011;10918;48.102;11.636;2023-04-08T13:01:21;11.18;;;9.23;;
21513;SDS011;10918;48.102;11.636;2023-04-08T13:03:47;11.38;;;9.65;;
21513;SDS011;10918;48.102;11.636;2023-04-08T13:06:13;10.23;;;9.13;;
21513;SDS011;10918;48.102;11.636;2023-04-08T13:08:40;11.57;;;9.32;;
21513;SDS011;10918;48.102;11.636;2023-04-08T13:11:06;10.05;;;8.63;;
21513;SDS011;10918;48.102;11.636;2023-04-08T13:13:32;9.60;;;8.65;;
21513;SDS011;10918;48.102;11.636;2023-04-08T13:15:58;10.60;;;8.90;;
21513;SDS011;10918;48.102;11.636;2023-04-08T13:18:25;11.38;;;9.75;;
21513;SDS011;10918;48.102;11.636;2023-04-08T13:20:51;11.40;;;9.73;;
21513;SDS011;10918;48.102;11.636;2023-04-08T13:23:18;11.73;;;10.00;;
21513;SDS011;10918;48.102;11.636;2023-04-08T13:25:45;12.52;;;10.23;;
21513;SDS011;10918;48.102;11.636;2023-04-08T13:28:11;12.13;;;9.75;;
21513;SDS011;10918;48.102;11.636;2023-04-08T13:30:37;11.25;;;9.38;;
21513;SDS011;10918;48.102;11.636;2023-04-08T13:33:03;10.23;;;9.13;;
21513;SDS011;10918;48.102;11.636;2023-04-08T13:35:29;10.63;;;9.15;;
21513;SDS011;10918;48.102;11.636;2023-04-08T13:37:55;12.25;;;9.10;;
21513;SDS011;10918;48.102;11.636;2023-04-08T13:40:21;11.20;;;9.13;;
21513;SDS011;10918;48.102;11.636;2023-04-08T13:42:48;9.57;;;8.57;;
21513;SDS011;10918;48.102;11.636;2023-04-08T13:45:14;10.68;;;8.43;;
21513;SDS011;10918;48.102;11.636;2023-04-08T13:47:40;9.80;;;8.18;;
21513;SDS011;10918;48.102;11.636;2023-04-08T13:50:06;10.95;;;8.68;;
21513;SDS011;10918;48.102;11.636;2023-04-08T13:52:32;9.40;;;8.43;;
21513;SDS011;10918;48.102;11.636;2023-04-08T13:54:59;9.48;;;8.38;;
21513;SDS011;10918;48.102;11.636;2023-04-08T13:57:25;9.30;;;8.38;;
21513;SDS011;10918;48.102;11.636;2023-04-08T13:59:51;9.85;;;7.93;;
21513;SDS011;10918;48.102;11.636;2023-04-08T14:02:17;9.35;;;8.35;;
21513;SDS011;10918;48.102;11.636;2023-04-08T14:04:43;8.07;;;7.25;;
21513;SDS011;10918;48.102;11.636;2023-04-08T14:07:10;9.85;;;8.10;;
21513;SDS011;10918;48.102;11.636;2023-04-08T14:09:36;8.30;;;7.50;;
21513;SDS011;10918;48.102;11.636;2023-04-08T14:12:03;8.82;;;7.70;;
21513;SDS011;10918;48.102;11.636;2023-04-08T14:14:29;8.85;;;7.50;;
21513;SDS011;10918;48.102;11.636;2023-04-08T14:16:55;11.93;;;8.10;;
21513;SDS011;10918;48.102;11.636;2023-04-08T14:19:21;11.63;;;8.85;;
21513;SDS011;10918;48.102;11.636;2023-04-08T14:21:47;9.25;;;8.07;;
21513;SDS011;10918;48.102;11.636;2023-04-08T14:24:13;11.57;;;8.10;;
21513;SDS011;10918;48.102;11.636;2023-04-08T14:26:39;9.25;;;8.18;;
21513;SDS011;10918;48.102;11.636;2023-04-08T14:29:05;11.60;;;8.95;;
21513;SDS011;10918;48.102;11.636;2023-04-08T14:31:32;9.43;;;8.07;;
21513;SDS011;10918;48.102;11.636;2023-04-08T14:33:58;9.52;;;8.52;;
21513;SDS011;10918;48.102;11.636;2023-04-08T14:36:25;13.30;;;9.27;;
21513;SDS011;10918;48.102;11.636;2023-04-08T14:38:51;10.93;;;9.07;;
21513;SDS011;10918;48.102;11.636;2023-04-08T14:41:18;11.02;;;8.32;;